createdAt,value
2023-01-27T00:01:36.993Z,96306.25
2023-01-27T00:04:03.310Z,96314.97
2023-01-27T00:06:29.644Z,96306.94
2023-01-27T00:08:55.961Z,96310.69
2023-01-27T00:11:22.251Z,96300.00
2023-01-27T00:13:48.602Z,96298.34
2023-01-27T00:16:14.971Z,96299.44
2023-01-27T00:18:41.281Z,96294.63
2023-01-27T00:21:07.562Z,96293.72
2023-01-27T00:23:33.867Z,96295.66
2023-01-27T00:26:00.150Z,96292.81
2023-01-27T00:28:26.527Z,96298.56
2023-01-27T00:30:52.934Z,96303.44
2023-01-27T00:33:19.313Z,96307.63
2023-01-27T00:35:52.938Z,96301.34
2023-01-27T00:38:19.342Z,96294.50
2023-01-27T00:40:45.630Z,96291.09
2023-01-27T00:43:11.908Z,96290.72
2023-01-27T00:45:38.216Z,96282.44
2023-01-27T00:48:04.495Z,96281.03
2023-01-27T00:50:30.778Z,96290.09
2023-01-27T00:52:57.130Z,96278.59
2023-01-27T00:55:23.414Z,96265.81
2023-01-27T00:57:49.689Z,96272.84
2023-01-27T01:00:16.321Z,96267.13
2023-01-27T01:02:42.885Z,96265.63
2023-01-27T01:05:09.162Z,96274.53
2023-01-27T01:07:35.464Z,96266.50
2023-01-27T01:10:01.748Z,96263.00
2023-01-27T01:12:28.042Z,96263.00
2023-01-27T01:14:54.341Z,96267.66
2023-01-27T01:17:20.613Z,96266.91
2023-01-27T01:19:46.912Z,96265.47
2023-01-27T01:22:13.206Z,96268.03
2023-01-27T01:24:39.500Z,96269.97
2023-01-27T01:27:05.788Z,96276.31
2023-01-27T01:29:32.090Z,96276.63
2023-01-27T01:31:58.385Z,96272.50
2023-01-27T01:34:24.669Z,96270.88
2023-01-27T01:36:50.971Z,96261.00
2023-01-27T01:39:17.258Z,96264.41
2023-01-27T01:41:43.538Z,96260.47
2023-01-27T01:44:09.855Z,96261.00
2023-01-27T01:46:36.159Z,96262.31
2023-01-27T01:49:02.450Z,96260.63
2023-01-27T01:51:28.755Z,96259.44
2023-01-27T01:53:55.031Z,96252.06
2023-01-27T01:56:21.312Z,96247.81
2023-01-27T01:58:47.671Z,96247.31
2023-01-27T02:01:14.092Z,96245.38
2023-01-27T02:03:40.402Z,96253.69
2023-01-27T02:06:06.711Z,96244.88
2023-01-27T02:08:32.993Z,96238.81
2023-01-27T02:10:59.270Z,96239.06
2023-01-27T02:13:25.595Z,96233.09
2023-01-27T02:15:51.883Z,96232.63
2023-01-27T02:18:18.181Z,96232.56
2023-01-27T02:20:44.486Z,96234.59
2023-01-27T02:23:10.781Z,96231.13
2023-01-27T02:25:37.124Z,96225.56
2023-01-27T02:28:03.569Z,96226.69
2023-01-27T02:30:29.905Z,96224.78
2023-01-27T02:32:56.235Z,96224.53
2023-01-27T02:35:22.543Z,96226.19
2023-01-27T02:37:48.831Z,96222.34
2023-01-27T02:40:15.129Z,96219.59
2023-01-27T02:42:41.455Z,96226.63
2023-01-27T02:45:07.741Z,96222.66
2023-01-27T02:47:34.012Z,96225.84
2023-01-27T02:50:00.334Z,96228.97
2023-01-27T02:52:26.617Z,96234.69
2023-01-27T02:54:52.901Z,96228.16
2023-01-27T02:57:19.195Z,96223.28
2023-01-27T02:59:45.490Z,96220.31
2023-01-27T03:02:11.828Z,96214.81
2023-01-27T03:04:38.476Z,96214.63
2023-01-27T03:07:04.764Z,96213.88
2023-01-27T03:09:31.037Z,96208.25
2023-01-27T03:11:57.328Z,96217.50
2023-01-27T03:14:23.669Z,96214.31
2023-01-27T03:16:49.956Z,96210.03
2023-01-27T03:19:16.282Z,96212.91
2023-01-27T03:21:42.572Z,96200.03
2023-01-27T03:24:08.868Z,96235.88
2023-01-27T03:26:35.199Z,96217.03
2023-01-27T03:29:01.526Z,96213.34
2023-01-27T03:31:27.923Z,96215.41
2023-01-27T03:33:54.254Z,96206.69
2023-01-27T03:36:20.564Z,96221.47
2023-01-27T03:38:46.884Z,96215.78
2023-01-27T03:41:13.328Z,96214.25
2023-01-27T03:43:39.620Z,96210.53
2023-01-27T03:46:07.112Z,96215.22
2023-01-27T03:48:33.548Z,96218.97
2023-01-27T03:50:59.821Z,96221.91
2023-01-27T03:53:26.113Z,96216.56
2023-01-27T03:55:52.417Z,96215.63
2023-01-27T03:58:18.712Z,96221.84
2023-01-27T04:00:45.001Z,96214.34
2023-01-27T04:03:11.313Z,96228.81
2023-01-27T04:05:37.647Z,96217.44
2023-01-27T04:08:03.921Z,96219.84
2023-01-27T04:10:30.266Z,96216.13
2023-01-27T04:12:56.546Z,96219.56
2023-01-27T04:15:24.873Z,96218.88
2023-01-27T04:17:51.186Z,96219.06
2023-01-27T04:20:17.537Z,96217.63
2023-01-27T04:22:43.825Z,96217.16
2023-01-27T04:25:12.175Z,96217.44
2023-01-27T04:27:39.290Z,96216.28
2023-01-27T04:30:05.576Z,96219.00
2023-01-27T04:32:31.901Z,96219.53
2023-01-27T04:34:58.357Z,96213.56
2023-01-27T04:37:24.636Z,96219.22
2023-01-27T04:39:50.940Z,96216.84
2023-01-27T04:42:17.230Z,96212.75
2023-01-27T04:44:43.520Z,96217.78
2023-01-27T04:47:09.820Z,96211.09
2023-01-27T04:49:36.132Z,96221.75
2023-01-27T04:52:02.428Z,96229.13
2023-01-27T04:54:28.735Z,96220.69
2023-01-27T04:56:55.046Z,96211.97
2023-01-27T04:59:21.355Z,96225.63
2023-01-27T05:01:47.862Z,96216.56
2023-01-27T05:04:14.159Z,96212.03
2023-01-27T05:06:40.464Z,96214.16
2023-01-27T05:09:06.771Z,96224.91
2023-01-27T05:11:33.051Z,96217.22
2023-01-27T05:13:59.332Z,96229.97
2023-01-27T05:16:25.734Z,96215.72
2023-01-27T05:18:52.235Z,96218.81
2023-01-27T05:21:18.547Z,96217.16
2023-01-27T05:23:45.094Z,96225.66
2023-01-27T05:26:11.384Z,96221.75
2023-01-27T05:28:37.663Z,96221.91
2023-01-27T05:31:04.029Z,96225.50
2023-01-27T05:33:30.395Z,96205.22
2023-01-27T05:35:56.675Z,96216.31
2023-01-27T05:38:22.976Z,96225.34
2023-01-27T05:40:49.262Z,96226.94
2023-01-27T05:43:15.535Z,96218.09
2023-01-27T05:45:41.856Z,96223.13
2023-01-27T05:48:10.563Z,96220.81
2023-01-27T05:50:36.855Z,96221.91
2023-01-27T05:53:03.174Z,96228.47
2023-01-27T05:55:29.456Z,96206.00
2023-01-27T05:57:58.766Z,96232.56
2023-01-27T06:00:25.083Z,96226.94
2023-01-27T06:02:51.438Z,96223.16
2023-01-27T06:05:17.771Z,96223.34
2023-01-27T06:07:44.087Z,96233.84
2023-01-27T06:10:10.399Z,96236.44
2023-01-27T06:12:36.682Z,96232.50
2023-01-27T06:15:02.983Z,96227.38
2023-01-27T06:17:29.304Z,96244.22
2023-01-27T06:19:55.603Z,96239.75
2023-01-27T06:22:22.307Z,96235.66
2023-01-27T06:24:48.595Z,96234.50
2023-01-27T06:27:15.061Z,96230.69
2023-01-27T06:29:41.363Z,96229.25
2023-01-27T06:32:07.701Z,96235.94
2023-01-27T06:34:34.073Z,96233.56
2023-01-27T06:37:00.388Z,96236.44
2023-01-27T06:39:26.685Z,96231.06
2023-01-27T06:41:53.085Z,96226.38
2023-01-27T06:44:19.394Z,96223.47
2023-01-27T06:46:45.692Z,96225.88
2023-01-27T06:49:12.035Z,96228.09
2023-01-27T06:51:38.343Z,96222.03
2023-01-27T06:54:04.663Z,96216.13
2023-01-27T06:56:30.941Z,96210.06
2023-01-27T06:58:57.243Z,96222.03
2023-01-27T07:01:23.572Z,96219.03
2023-01-27T07:03:49.879Z,96215.78
2023-01-27T07:06:16.188Z,96229.91
2023-01-27T07:08:42.502Z,96228.31
2023-01-27T07:11:08.793Z,96229.19
2023-01-27T07:13:35.108Z,96229.78
2023-01-27T07:16:01.460Z,96224.22
2023-01-27T07:18:27.819Z,96236.44
2023-01-27T07:20:54.128Z,96243.31
2023-01-27T07:23:20.428Z,96253.56
2023-01-27T07:25:46.722Z,96249.09
2023-01-27T07:28:13.069Z,96245.22
2023-01-27T07:30:39.484Z,96253.16
2023-01-27T07:33:05.824Z,96258.41
2023-01-27T07:35:32.164Z,96244.53
2023-01-27T07:37:58.457Z,96247.13
2023-01-27T07:40:24.760Z,96264.44
2023-01-27T07:42:53.392Z,96251.00
2023-01-27T07:45:19.688Z,96250.84
2023-01-27T07:47:45.961Z,96242.50
2023-01-27T07:50:12.553Z,96247.69
2023-01-27T07:52:39.018Z,96248.56
2023-01-27T07:55:05.315Z,96253.28
2023-01-27T07:57:31.636Z,96252.13
2023-01-27T07:59:57.926Z,96239.19
2023-01-27T08:02:24.227Z,96249.41
2023-01-27T08:04:53.235Z,96243.41
2023-01-27T08:07:20.086Z,96241.59
2023-01-27T08:09:46.378Z,96243.78
2023-01-27T08:12:12.679Z,96237.44
2023-01-27T08:14:38.962Z,96241.59
2023-01-27T08:17:05.257Z,96239.66
2023-01-27T08:19:31.574Z,96236.72
2023-01-27T08:21:57.867Z,96234.59
2023-01-27T08:24:24.180Z,96240.06
2023-01-27T08:26:50.495Z,96244.28
2023-01-27T08:29:16.793Z,96250.13
2023-01-27T08:31:43.122Z,96261.91
2023-01-27T08:34:09.469Z,96246.16
2023-01-27T08:36:35.749Z,96264.66
2023-01-27T08:39:02.046Z,96267.06
2023-01-27T08:41:28.385Z,96272.59
2023-01-27T08:43:54.684Z,96270.69
2023-01-27T08:46:20.980Z,96268.47
2023-01-27T08:48:47.294Z,96273.09
2023-01-27T08:51:13.594Z,96282.88
2023-01-27T08:53:39.890Z,96285.63
2023-01-27T08:56:06.182Z,96285.56
2023-01-27T08:58:32.458Z,96291.88
2023-01-27T09:00:58.767Z,96290.09
2023-01-27T09:03:25.096Z,96286.75
2023-01-27T09:05:51.386Z,96292.22
2023-01-27T09:08:17.743Z,96296.28
2023-01-27T09:10:44.043Z,96305.78
2023-01-27T09:13:10.331Z,96308.78
2023-01-27T09:15:36.612Z,96299.25
2023-01-27T09:18:05.328Z,96296.06
2023-01-27T09:20:32.519Z,96297.63
2023-01-27T09:22:58.794Z,96298.09
2023-01-27T09:25:25.099Z,96294.75
2023-01-27T09:27:51.404Z,96308.81
2023-01-27T09:30:17.695Z,96299.81
2023-01-27T09:32:44.030Z,96298.09
2023-01-27T09:35:10.539Z,96303.97
2023-01-27T09:37:37.347Z,96304.19
2023-01-27T09:40:03.671Z,96305.84
2023-01-27T09:42:29.952Z,96307.59
2023-01-27T09:44:56.231Z,96310.59
2023-01-27T09:47:22.533Z,96306.44
2023-01-27T09:49:48.828Z,96303.53
2023-01-27T09:52:15.122Z,96317.59
2023-01-27T09:54:41.435Z,96321.47
2023-01-27T09:57:07.733Z,96321.25
2023-01-27T09:59:34.030Z,96307.50
2023-01-27T10:02:00.344Z,96318.72
2023-01-27T10:04:26.669Z,96317.66
2023-01-27T10:06:52.959Z,96321.94
2023-01-27T10:09:19.264Z,96321.47
2023-01-27T10:11:45.543Z,96322.97
2023-01-27T10:14:11.817Z,96318.16
2023-01-27T10:16:38.246Z,96322.56
2023-01-27T10:19:04.589Z,96328.59
2023-01-27T10:21:30.889Z,96333.19
2023-01-27T10:23:57.205Z,96332.75
2023-01-27T10:26:23.509Z,96328.94
2023-01-27T10:28:49.894Z,96311.91
2023-01-27T10:31:16.350Z,96319.38
2023-01-27T10:33:42.700Z,96306.84
2023-01-27T10:36:08.994Z,96315.50
2023-01-27T10:38:35.301Z,96308.72
2023-01-27T10:41:01.602Z,96306.84
2023-01-27T10:43:27.918Z,96313.19
2023-01-27T10:45:54.274Z,96314.00
2023-01-27T10:48:20.574Z,96305.84
2023-01-27T10:50:46.867Z,96303.84
2023-01-27T10:53:13.168Z,96302.97
2023-01-27T10:55:39.463Z,96302.69
2023-01-27T10:58:05.740Z,96315.66
2023-01-27T11:01:18.181Z,96308.16
2023-01-27T11:03:18.300Z,96305.25
2023-01-27T11:05:44.592Z,96295.03
2023-01-27T11:08:19.896Z,96299.81
2023-01-27T11:10:46.198Z,96304.25
2023-01-27T11:13:12.481Z,96306.56
2023-01-27T11:15:38.761Z,96287.34
2023-01-27T11:18:05.086Z,96306.00
2023-01-27T11:20:31.362Z,96300.22
2023-01-27T11:22:57.652Z,96299.09
2023-01-27T11:25:23.969Z,96304.72
2023-01-27T11:27:50.246Z,96294.47
2023-01-27T11:30:17.073Z,96290.66
2023-01-27T11:32:43.713Z,96302.31
2023-01-27T11:35:10.015Z,96305.41
2023-01-27T11:37:36.303Z,96305.56
2023-01-27T11:40:02.606Z,96301.66
2023-01-27T11:42:28.901Z,96308.56
2023-01-27T11:44:55.191Z,96297.06
2023-01-27T11:47:21.535Z,96287.63
2023-01-27T11:49:47.920Z,96297.22
2023-01-27T11:52:14.208Z,96292.09
2023-01-27T11:54:40.517Z,96289.59
2023-01-27T11:57:06.821Z,96287.34
2023-01-27T11:59:33.103Z,96276.91
2023-01-27T12:01:59.406Z,96273.22
2023-01-27T12:04:25.757Z,96275.88
2023-01-27T12:06:52.063Z,96272.34
2023-01-27T12:09:18.371Z,96269.44
2023-01-27T12:11:44.660Z,96281.81
2023-01-27T12:14:10.954Z,96258.75
2023-01-27T12:16:37.254Z,96250.09
2023-01-27T12:19:03.564Z,96251.66
2023-01-27T12:21:29.863Z,96246.19
2023-01-27T12:23:56.215Z,96252.59
2023-01-27T12:26:22.527Z,96252.53
2023-01-27T12:28:48.808Z,96247.44
2023-01-27T12:31:15.235Z,96248.09
2023-01-27T12:33:41.586Z,96244.31
2023-01-27T12:36:07.875Z,96254.19
2023-01-27T12:38:34.187Z,96237.78
2023-01-27T12:41:00.483Z,96256.44
2023-01-27T12:43:26.782Z,96244.84
2023-01-27T12:45:53.089Z,96252.00
2023-01-27T12:48:19.379Z,96246.78
2023-01-27T12:50:45.659Z,96252.81
2023-01-27T12:53:11.998Z,96247.75
2023-01-27T12:55:38.287Z,96250.03
2023-01-27T12:58:04.564Z,96247.63
2023-01-27T13:00:30.997Z,96243.66
2023-01-27T13:02:57.335Z,96249.72
2023-01-27T13:05:23.630Z,96253.94
2023-01-27T13:07:49.927Z,96245.47
2023-01-27T13:10:16.414Z,96248.13
2023-01-27T13:12:42.851Z,96247.06
2023-01-27T13:15:09.163Z,96259.59
2023-01-27T13:17:35.560Z,96258.63
2023-01-27T13:20:01.911Z,96254.50
2023-01-27T13:22:28.224Z,96254.91
2023-01-27T13:24:54.516Z,96248.13
2023-01-27T13:27:20.815Z,96258.81
2023-01-27T13:29:47.123Z,96245.63
2023-01-27T13:32:13.406Z,96267.31
2023-01-27T13:34:39.686Z,96249.38
2023-01-27T13:37:05.981Z,96252.66
2023-01-27T13:39:32.267Z,96258.88
2023-01-27T13:41:58.552Z,96259.28
2023-01-27T13:44:24.867Z,96263.84
2023-01-27T13:46:51.175Z,96274.34
2023-01-27T13:49:17.500Z,96264.28
2023-01-27T13:51:43.813Z,96269.69
2023-01-27T13:54:10.103Z,96268.03
2023-01-27T13:56:36.381Z,96256.44
2023-01-27T13:59:02.720Z,96263.63
2023-01-27T14:01:29.047Z,96282.56
2023-01-27T14:03:55.390Z,96251.75
2023-01-27T14:06:21.703Z,96241.38
2023-01-27T14:08:47.992Z,96276.31
2023-01-27T14:11:14.271Z,96279.03
2023-01-27T14:13:40.572Z,96292.94
2023-01-27T14:16:06.983Z,96275.69
2023-01-27T14:18:33.496Z,96269.56
2023-01-27T14:20:59.810Z,96269.25
2023-01-27T14:23:26.391Z,96260.63
2023-01-27T14:25:52.835Z,96257.97
2023-01-27T14:28:19.142Z,96278.69
2023-01-27T14:30:47.792Z,96279.34
2023-01-27T14:33:14.108Z,96282.56
2023-01-27T14:35:40.434Z,96289.94
2023-01-27T14:38:06.733Z,96294.34
2023-01-27T14:40:33.026Z,96304.03
2023-01-27T14:42:59.352Z,96304.84
2023-01-27T14:45:25.647Z,96301.06
2023-01-27T14:47:51.951Z,96307.66
2023-01-27T14:50:18.258Z,96308.34
2023-01-27T14:52:44.581Z,96336.31
2023-01-27T14:55:10.879Z,96309.00
2023-01-27T14:57:37.217Z,96314.91
2023-01-27T15:00:03.612Z,96300.06
2023-01-27T15:02:30.017Z,96309.75
2023-01-27T15:04:56.347Z,96318.50
2023-01-27T15:07:22.620Z,96319.34
2023-01-27T15:09:48.895Z,96329.84
2023-01-27T15:12:15.198Z,96328.91
2023-01-27T15:14:43.229Z,96330.84
2023-01-27T15:17:09.744Z,96340.28
2023-01-27T15:19:36.049Z,96325.22
2023-01-27T15:22:02.345Z,96328.91
2023-01-27T15:24:28.673Z,96336.53
2023-01-27T15:26:55.020Z,96328.63
2023-01-27T15:29:21.296Z,96334.53
2023-01-27T15:31:47.670Z,96337.25
2023-01-27T15:34:14.015Z,96345.03
2023-01-27T15:36:40.319Z,96326.72
2023-01-27T15:39:06.679Z,96339.06
2023-01-27T15:41:32.995Z,96332.34
2023-01-27T15:43:59.299Z,96325.00
2023-01-27T15:46:25.592Z,96342.88
2023-01-27T15:48:51.891Z,96348.63
2023-01-27T15:51:18.187Z,96358.56
2023-01-27T15:53:44.484Z,96344.09
2023-01-27T15:56:10.804Z,96344.03
2023-01-27T15:58:37.108Z,96349.50
2023-01-27T16:01:03.413Z,96385.66
2023-01-27T16:03:29.730Z,96362.03
2023-01-27T16:05:56.028Z,96363.91
2023-01-27T16:08:22.325Z,96367.88
2023-01-27T16:10:48.666Z,96364.13
2023-01-27T16:13:14.950Z,96376.28
2023-01-27T16:15:41.242Z,96377.03
2023-01-27T16:18:07.549Z,96370.09
2023-01-27T16:20:33.843Z,96382.50
2023-01-27T16:23:00.142Z,96376.22
2023-01-27T16:25:26.444Z,96373.78
2023-01-27T16:27:52.754Z,96373.41
2023-01-27T16:30:19.133Z,96387.69
2023-01-27T16:32:45.539Z,96379.97
2023-01-27T16:35:12.255Z,96382.56
2023-01-27T16:37:38.678Z,96392.00
2023-01-27T16:40:04.985Z,96381.72
2023-01-27T16:42:31.315Z,96400.34
2023-01-27T16:44:57.610Z,96384.94
2023-01-27T16:47:23.932Z,96390.47
2023-01-27T16:49:50.270Z,96400.78
2023-01-27T16:52:16.564Z,96405.47
2023-01-27T16:54:42.858Z,96392.66
2023-01-27T16:57:09.143Z,96401.09
2023-01-27T16:59:35.451Z,96396.41
2023-01-27T17:02:01.761Z,96414.16
2023-01-27T17:04:28.036Z,96415.75
2023-01-27T17:06:54.365Z,96410.09
2023-01-27T17:09:20.709Z,96417.00
2023-01-27T17:11:47.002Z,96415.59
2023-01-27T17:14:28.449Z,96414.00
2023-01-27T17:16:56.962Z,96408.34
2023-01-27T17:19:24.159Z,96424.25
2023-01-27T17:21:50.458Z,96445.28
2023-01-27T17:24:16.794Z,96426.69
2023-01-27T17:26:43.089Z,96433.91
2023-01-27T17:29:09.373Z,96423.38
2023-01-27T17:31:35.777Z,96443.38
2023-01-27T17:34:02.133Z,96441.22
2023-01-27T17:36:28.410Z,96433.31
2023-01-27T17:38:54.717Z,96438.94
2023-01-27T17:41:21.005Z,96441.78
2023-01-27T17:43:47.300Z,96447.94
2023-01-27T17:46:13.627Z,96452.28
2023-01-27T17:48:39.929Z,96464.81
2023-01-27T17:51:06.211Z,96478.34
2023-01-27T17:53:36.209Z,96446.56
2023-01-27T17:56:02.495Z,96454.94
2023-01-27T17:58:28.778Z,96452.56
2023-01-27T18:00:55.097Z,96444.88
2023-01-27T18:03:21.373Z,96484.66
2023-01-27T18:05:47.661Z,96454.13
2023-01-27T18:08:13.975Z,96452.47
2023-01-27T18:10:40.258Z,96465.00
2023-01-27T18:13:06.531Z,96469.03
2023-01-27T18:15:32.841Z,96454.84
2023-01-27T18:17:59.129Z,96461.97
2023-01-27T18:20:25.427Z,96463.41
2023-01-27T18:22:53.295Z,96463.91
2023-01-27T18:25:19.574Z,96460.66
2023-01-27T18:27:45.868Z,96469.66
2023-01-27T18:30:12.174Z,96463.03
2023-01-27T18:32:38.471Z,96468.41
2023-01-27T18:35:04.763Z,96466.22
2023-01-27T18:37:31.075Z,96462.09
2023-01-27T18:39:57.378Z,96456.00
2023-01-27T18:42:23.651Z,96479.34
2023-01-27T18:44:49.960Z,96465.97
2023-01-27T18:47:16.242Z,96472.41
2023-01-27T18:49:42.537Z,96476.44
2023-01-27T18:52:08.870Z,96473.63
2023-01-27T18:54:35.156Z,96477.88
2023-01-27T18:57:01.440Z,96474.00
2023-01-27T18:59:27.748Z,96476.75
2023-01-27T19:01:54.055Z,96482.16
2023-01-27T19:04:20.376Z,96478.28
2023-01-27T19:06:46.685Z,96477.47
2023-01-27T19:09:12.971Z,96482.38
2023-01-27T19:11:39.247Z,96481.09
2023-01-27T19:14:05.558Z,96473.38
2023-01-27T19:16:31.866Z,96478.47
2023-01-27T19:18:58.154Z,96483.47
2023-01-27T19:21:24.455Z,96483.16
2023-01-27T19:23:50.805Z,96475.72
2023-01-27T19:26:17.130Z,96481.22
2023-01-27T19:28:43.582Z,96478.91
2023-01-27T19:31:09.926Z,96476.53
2023-01-27T19:33:36.259Z,96481.56
2023-01-27T19:36:02.573Z,96488.78
2023-01-27T19:38:28.883Z,96482.44
2023-01-27T19:40:55.171Z,96478.53
2023-01-27T19:43:21.474Z,96476.09
2023-01-27T19:45:47.827Z,96472.44
2023-01-27T19:48:14.133Z,96471.56
2023-01-27T19:50:40.440Z,96475.00
2023-01-27T19:53:06.722Z,96480.06
2023-01-27T19:55:33.022Z,96479.16
2023-01-27T19:57:59.334Z,96484.91
2023-01-27T20:00:25.611Z,96485.34
2023-01-27T20:02:51.888Z,96477.91
2023-01-27T20:05:18.199Z,96491.88
2023-01-27T20:07:44.484Z,96481.44
2023-01-27T20:10:10.766Z,96497.16
2023-01-27T20:12:37.066Z,96496.91
2023-01-27T20:15:03.389Z,96495.03
2023-01-27T20:17:29.693Z,96492.44
2023-01-27T20:19:56.003Z,96496.34
2023-01-27T20:22:22.283Z,96496.59
2023-01-27T20:24:48.561Z,96485.97
2023-01-27T20:27:14.861Z,96498.72
2023-01-27T20:29:41.139Z,96494.59
2023-01-27T20:32:07.494Z,96504.22
2023-01-27T20:34:33.869Z,96496.06
2023-01-27T20:37:00.146Z,96501.69
2023-01-27T20:39:26.427Z,96499.59
2023-01-27T20:41:52.727Z,96497.66
2023-01-27T20:44:19.013Z,96496.75
2023-01-27T20:46:45.297Z,96501.97
2023-01-27T20:49:11.629Z,96500.97
2023-01-27T20:51:37.924Z,96503.66
2023-01-27T20:54:04.204Z,96500.03
2023-01-27T20:56:30.513Z,96508.06
2023-01-27T20:58:56.802Z,96510.53
2023-01-27T21:01:23.149Z,96509.13
2023-01-27T21:03:49.510Z,96492.72
2023-01-27T21:06:15.845Z,96498.44
2023-01-27T21:08:42.159Z,96499.88
2023-01-27T21:11:08.463Z,96496.41
2023-01-27T21:13:34.743Z,96502.06
2023-01-27T21:16:01.231Z,96505.34
2023-01-27T21:18:27.526Z,96505.53
2023-01-27T21:20:53.832Z,96505.69
2023-01-27T21:23:20.109Z,96503.97
2023-01-27T21:25:46.402Z,96503.97
2023-01-27T21:28:12.687Z,96501.72
2023-01-27T21:30:39.000Z,96510.81
2023-01-27T21:33:05.318Z,96503.91
2023-01-27T21:35:33.260Z,96502.97
2023-01-27T21:37:59.964Z,96498.38
2023-01-27T21:40:26.307Z,96501.34
2023-01-27T21:42:52.738Z,96498.06
2023-01-27T21:45:19.100Z,96494.59
2023-01-27T21:47:45.659Z,96501.13
2023-01-27T21:50:11.949Z,96499.75
2023-01-27T21:52:38.237Z,96501.03
2023-01-27T21:55:04.904Z,96494.97
2023-01-27T21:57:31.221Z,96493.81
2023-01-27T21:59:57.495Z,96487.97
2023-01-27T22:02:23.785Z,96515.41
2023-01-27T22:04:50.087Z,96492.28
2023-01-27T22:07:16.397Z,96495.44
2023-01-27T22:09:42.701Z,96499.34
2023-01-27T22:12:08.982Z,96493.59
2023-01-27T22:14:35.262Z,96492.22
2023-01-27T22:17:01.557Z,96489.81
2023-01-27T22:19:27.840Z,96496.69
2023-01-27T22:21:54.135Z,96493.91
2023-01-27T22:24:20.481Z,96502.81
2023-01-27T22:26:46.788Z,96501.44
2023-01-27T22:29:13.074Z,96508.88
2023-01-27T22:31:39.362Z,96504.69
2023-01-27T22:34:05.639Z,96512.53
2023-01-27T22:36:31.919Z,96503.88
2023-01-27T22:38:58.215Z,96498.69
2023-01-27T22:41:24.511Z,96495.34
2023-01-27T22:43:50.788Z,96498.09
2023-01-27T22:46:18.934Z,96496.16
2023-01-27T22:48:45.207Z,96491.97
2023-01-27T22:51:11.516Z,96495.94
2023-01-27T22:53:37.827Z,96487.72
2023-01-27T22:56:04.121Z,96483.63
2023-01-27T22:58:30.450Z,96493.84
2023-01-27T23:00:56.792Z,96486.50
2023-01-27T23:03:23.152Z,96484.63
2023-01-27T23:05:49.431Z,96485.06
2023-01-27T23:08:15.741Z,96487.44
2023-01-27T23:10:42.032Z,96479.94
2023-01-27T23:13:08.316Z,96485.13
2023-01-27T23:15:34.624Z,96489.97
2023-01-27T23:18:00.922Z,96483.41
2023-01-27T23:20:27.210Z,96486.50
2023-01-27T23:22:53.511Z,96482.66
2023-01-27T23:25:19.800Z,96474.72
2023-01-27T23:27:46.203Z,96477.25
2023-01-27T23:30:12.505Z,96475.75
2023-01-27T23:32:38.801Z,96490.97
2023-01-27T23:35:05.090Z,96491.19
2023-01-27T23:37:31.409Z,96497.66
2023-01-27T23:39:57.694Z,96504.53
2023-01-27T23:42:23.982Z,96506.03
2023-01-27T23:44:50.281Z,96500.28
2023-01-27T23:47:16.579Z,96500.84
2023-01-27T23:49:43.959Z,96511.34
2023-01-27T23:52:10.296Z,96503.44
2023-01-27T23:54:36.593Z,96497.94
2023-01-27T23:57:02.892Z,96494.28
2023-01-27T23:59:29.192Z,96502.31
